Time;durP1;ratioP1;P1;durP2;ratioP2;P2;SDS_P1;SDS_P2;PMS_P1;PMS_P2;Temp;Humidity;BMP_temperature;BMP_pressure;BME280_temperature;BME280_humidity;BME280_pressure;Samples;Min_cycle;Max_cycle;Signal;HPM_P1;HPM_P2
2021/12/09 00:01:59;;;;;;;92.60;35.50;;;;;;;-1.84;87.58;100652.96;106975;1272;59670;-90
2021/12/09 00:04:31;;;;;;;92.30;35.50;;;;;;;-1.85;87.47;100656.91;106242;1271;74059;-88
2021/12/09 00:07:01;;;;;;;99.60;35.60;;;;;;;-1.83;87.48;100655.84;106811;1273;72111;-88
2021/12/09 00:09:31;;;;;;;98.70;36.80;;;;;;;-1.83;87.33;100656.02;106218;1273;68672;-88
2021/12/09 00:12:00;;;;;;;88.30;28.90;;;;;;;-1.83;87.44;100651.75;106605;1271;73734;-89
2021/12/09 00:14:31;;;;;;;85.70;31.10;;;;;;;-1.92;86.23;100652.96;106046;1273;60708;-88
2021/12/09 00:17:05;;;;;;;71.60;21.60;;;;;;;-1.97;85.07;100658.71;106009;1271;59404;-87
2021/12/09 00:19:34;;;;;;;;;;;;;;;-1.89;86.42;100660.40;105946;1271;74639;-87
2021/12/09 00:22:09;;;;;;;73.00;27.90;;;;;;;-1.90;84.71;100663.16;105891;1271;70412;-83
2021/12/09 00:24:38;;;;;;;80.10;28.90;;;;;;;-1.98;84.33;100663.85;105670;1273;70656;-90
2021/12/09 00:27:07;;;;;;;98.00;30.00;;;;;;;-1.99;85.09;100655.67;106038;1272;75693;-87
2021/12/09 00:29:36;;;;;;;101.10;37.50;;;;;;;-1.93;86.01;100658.27;105850;1273;62129;-86
2021/12/09 00:32:05;;;;;;;93.50;36.60;;;;;;;-1.80;87.16;100659.89;106026;1269;61688;-90
2021/12/09 00:34:36;;;;;;;93.90;34.60;;;;;;;-1.75;86.59;100659.43;106107;1273;74985;-87
2021/12/09 00:37:33;;;;;;;96.80;33.80;;;;;;;-1.72;86.90;100660.54;106570;1272;72023;-88
2021/12/09 00:40:05;;;;;;;95.30;34.40;;;;;;;-1.69;86.82;100666.47;106809;1274;70495;-86
2021/12/09 00:42:34;;;;;;;98.00;35.00;;;;;;;-1.68;87.44;100668.14;106047;1271;74812;-88
2021/12/09 00:45:04;;;;;;;63.60;19.40;;;;;;;-1.71;86.90;100666.85;106087;1271;60492;-87
2021/12/09 00:47:33;;;;;;;77.40;33.80;;;;;;;-1.87;84.84;100664.81;105966;1271;61112;-89
2021/12/09 00:50:03;;;;;;;81.40;32.00;;;;;;;-1.82;85.85;100657.34;106002;1272;72891;-90
2021/12/09 00:52:32;;;;;;;82.70;34.00;;;;;;;-1.84;86.73;100657.40;106651;1274;70699;-87
2021/12/09 00:55:01;;;;;;;100.40;28.20;;;;;;;-1.94;84.97;100658.98;107090;1273;68017;-83
2021/12/09 00:57:30;;;;;;;94.50;32.60;;;;;;;-1.82;86.97;100661.44;106272;1273;71298;-85
2021/12/09 00:59:59;;;;;;;90.20;34.20;;;;;;;-1.81;87.27;100664.85;105934;1274;59847;-85
2021/12/09 01:02:28;;;;;;;84.50;31.60;;;;;;;-1.82;86.92;100664.86;105943;1271;60348;-84
2021/12/09 01:04:57;;;;;;;80.60;32.00;;;;;;;-1.87;85.93;100665.15;106025;1273;74736;-85
2021/12/09 01:07:26;;;;;;;78.90;24.50;;;;;;;-1.91;85.09;100662.17;105826;1269;72397;-85
2021/12/09 01:09:55;;;;;;;89.90;34.30;;;;;;;-1.92;85.17;100662.70;106136;1272;69280;-86
2021/12/09 01:12:24;;;;;;;87.90;32.30;;;;;;;-1.85;86.90;100665.10;106634;1273;74128;-86
2021/12/09 01:14:54;;;;;;;79.90;30.30;;;;;;;-1.81;87.18;100664.35;106320;1274;59752;-76
2021/12/09 01:17:23;;;;;;;92.60;30.90;;;;;;;-1.86;86.02;100667.01;106011;1269;61008;-83
2021/12/09 01:19:53;;;;;;;80.60;32.30;;;;;;;-1.82;86.49;100664.35;105954;1273;74630;-84
2021/12/09 01:22:28;;;;;;;92.60;33.90;;;;;;;-1.84;86.07;100658.77;106258;1273;73053;-83
2021/12/09 01:24:57;;;;;;;80.70;33.40;;;;;;;-1.86;86.38;100663.08;106404;1270;69192;-87
2021/12/09 01:27:27;;;;;;;82.60;23.50;;;;;;;-1.92;85.62;100665.79;106263;1273;71533;-89
2021/12/09 01:29:56;;;;;;;91.30;32.40;;;;;;;-1.88;86.89;100666.02;106223;1273;62194;-80
2021/12/09 01:32:29;;;;;;;94.50;30.90;;;;;;;-1.84;87.54;100669.86;106290;1273;61699;-84
2021/12/09 01:34:58;;;;;;;90.50;33.90;;;;;;;-1.98;84.33;100667.77;106259;1273;72299;-87
2021/12/09 01:37:27;;;;;;;82.00;32.90;;;;;;;-1.93;84.64;100667.15;106066;1275;70719;-86
2021/12/09 01:39:56;;;;;;;92.80;33.80;;;;;;;-1.84;86.32;100669.35;106105;1271;69986;-85
2021/12/09 01:42:25;;;;;;;88.50;29.30;;;;;;;-1.81;86.73;100671.85;105910;1274;72934;-85
2021/12/09 01:44:54;;;;;;;73.70;23.00;;;;;;;-1.80;86.95;100675.59;106242;1273;59837;-87
2021/12/09 01:47:22;;;;;;;58.50;23.60;;;;;;;-1.87;85.35;100675.07;106058;1273;60599;-87
2021/12/09 01:49:52;;;;;;;96.70;34.00;;;;;;;-1.85;86.10;100675.19;106411;1271;72478;-87
2021/12/09 01:52:21;;;;;;;79.50;28.00;;;;;;;-1.80;86.57;100675.23;107011;1274;72842;-87
2021/12/09 01:54:49;;;;;;;88.50;34.40;;;;;;;-1.77;86.47;100677.76;105974;1273;71697;-82
2021/12/09 01:57:19;;;;;;;91.80;33.70;;;;;;;-1.76;87.38;100672.59;105793;1272;73101;-80
2021/12/09 01:59:49;;;;;;;97.30;36.30;;;;;;;-1.81;87.30;100671.51;105955;1272;61388;-82
2021/12/09 02:02:18;;;;;;;98.90;35.70;;;;;;;-1.81;87.39;100674.58;105890;1273;59772;-82
2021/12/09 02:04:47;;;;;;;101.90;36.30;;;;;;;-1.81;86.79;100675.95;105664;1273;72625;-81
2021/12/09 02:07:16;;;;;;;99.70;33.00;;;;;;;-1.74;87.10;100677.49;105778;1273;70577;-85
2021/12/09 02:09:45;;;;;;;88.50;34.90;;;;;;;-1.81;86.06;100680.90;105693;1270;68369;-83
2021/12/09 02:12:14;;;;;;;68.20;22.60;;;;;;;-1.81;85.98;100678.16;106151;1273;71036;-89
2021/12/09 02:14:44;;;;;;;80.80;32.60;;;;;;;-1.90;85.15;100679.73;106103;1273;61422;-88
2021/12/09 02:17:13;;;;;;;94.90;33.50;;;;;;;-1.83;86.96;100673.08;105680;1273;61839;-84
2021/12/09 02:19:43;;;;;;;85.30;33.30;;;;;;;-1.85;87.21;100675.17;105734;1272;72826;-81
2021/12/09 02:22:14;;;;;;;89.10;35.90;;;;;;;-2.01;85.42;100679.10;106474;1273;70065;-87
2021/12/09 02:24:43;;;;;;;85.30;34.10;;;;;;;-1.90;86.48;100681.93;105900;1270;68777;-87
2021/12/09 02:27:12;;;;;;;90.30;34.30;;;;;;;-1.90;85.89;100680.91;105778;1274;73674;-87
2021/12/09 02:29:41;;;;;;;85.50;36.30;;;;;;;-1.81;87.64;100681.94;105894;1271;62089;-87
2021/12/09 02:32:10;;;;;;;87.90;35.40;;;;;;;-1.84;87.45;100687.96;105909;1271;60669;-87
2021/12/09 02:34:39;;;;;;;96.10;35.90;;;;;;;-1.88;86.74;100687.53;105955;1273;72558;-86
2021/12/09 02:37:10;;;;;;;85.20;34.10;;;;;;;-1.82;87.73;100688.95;105820;1274;69664;-86
2021/12/09 02:39:42;;;;;;;99.20;34.70;;;;;;;-1.83;87.89;100689.31;105989;1273;68010;-85
2021/12/09 02:42:12;;;;;;;83.70;33.40;;;;;;;-1.83;87.73;100688.97;106038;1273;74359;-86
2021/12/09 02:44:41;;;;;;;93.10;35.70;;;;;;;-1.93;85.58;100694.82;105904;1273;62252;-86
2021/12/09 02:47:10;;;;;;;94.00;35.80;;;;;;;-1.90;85.70;100695.77;105902;1273;61053;-85
2021/12/09 02:49:39;;;;;;;93.40;36.80;;;;;;;-1.85;87.54;100697.38;105910;1274;71524;-86
2021/12/09 02:52:08;;;;;;;94.20;37.20;;;;;;;-1.90;86.48;100699.36;105937;1273;73193;-84
2021/12/09 02:54:37;;;;;;;96.10;37.20;;;;;;;-1.87;87.96;100700.83;105916;1273;69771;-83
2021/12/09 02:57:07;;;;;;;106.00;40.40;;;;;;;-1.90;87.42;100702.42;105801;1275;73898;-84
2021/12/09 02:59:36;;;;;;;103.30;40.00;;;;;;;-1.86;87.49;100704.22;105923;1273;62058;-84
2021/12/09 03:02:06;;;;;;;96.10;36.80;;;;;;;-1.78;88.67;100707.11;105964;1271;60409;-85
2021/12/09 03:04:42;;;;;;;91.50;35.80;;;;;;;-1.79;88.15;100709.04;105915;1273;73336;-87
2021/12/09 03:07:35;;;;;;;98.30;35.50;;;;;;;-1.80;87.73;100708.36;105984;1273;72324;-85
2021/12/09 03:10:10;;;;;;;103.80;38.80;;;;;;;-1.93;85.26;100704.88;105829;1274;71161;-84
2021/12/09 03:12:41;;;;;;;100.60;39.40;;;;;;;-1.87;86.33;100713.98;105819;1273;74572;-83
2021/12/09 03:15:10;;;;;;;104.10;36.60;;;;;;;-1.84;85.73;100717.86;105739;1273;61824;-85
2021/12/09 03:17:40;;;;;;;99.00;37.60;;;;;;;-1.79;86.67;100717.23;105891;1273;60213;-84
2021/12/09 03:20:11;;;;;;;104.10;37.00;;;;;;;-1.78;87.55;100717.88;107269;1271;75086;-81
2021/12/09 03:22:41;;;;;;;118.00;41.00;;;;;;;-1.74;88.26;100726.33;107346;1271;69344;-83
2021/12/09 03:25:12;;;;;;;101.70;40.00;;;;;;;-1.74;88.79;100733.50;107399;1274;68032;-87
2021/12/09 03:27:41;;;;;;;105.70;38.20;;;;;;;-1.75;87.13;100737.80;106081;1273;74944;-86
2021/12/09 03:30:13;;;;;;;103.00;40.70;;;;;;;-1.68;87.94;100742.95;105755;1273;62242;-83
2021/12/09 03:32:42;;;;;;;107.80;39.90;;;;;;;-1.69;87.22;100741.94;105508;1274;59554;-83
2021/12/09 03:35:12;;;;;;;109.30;39.50;;;;;;;-1.65;87.60;100736.91;105689;1273;72946;-83
2021/12/09 03:37:41;;;;;;;98.50;38.40;;;;;;;-1.68;88.25;100743.94;105735;1273;70037;-89
2021/12/09 03:40:12;;;;;;;100.20;36.20;;;;;;;-1.67;88.26;100744.98;105949;1273;69071;-84
2021/12/09 03:42:43;;;;;;;90.20;33.50;;;;;;;-1.75;88.68;100735.58;105556;1273;72779;-84
2021/12/09 03:45:13;;;;;;;95.80;37.30;;;;;;;-1.70;88.40;100752.20;105667;1274;60480;-84
2021/12/09 03:47:43;;;;;;;102.90;37.70;;;;;;;-1.71;88.37;100753.59;105726;1273;60511;-83
2021/12/09 03:50:17;;;;;;;86.20;31.00;;;;;;;-1.76;87.96;100755.73;105761;1273;74973;-82
2021/12/09 03:52:46;;;;;;;90.70;34.50;;;;;;;-1.84;86.83;100751.45;105889;1273;72252;-84
2021/12/09 03:55:14;;;;;;;98.10;35.10;;;;;;;-1.82;87.56;100752.11;105855;1273;70138;-85
2021/12/09 03:57:44;;;;;;;95.60;37.20;;;;;;;-1.83;87.28;100761.19;105544;1275;74787;-83
2021/12/09 04:00:14;;;;;;;94.20;32.20;;;;;;;-1.82;87.63;100767.98;105876;1273;61023;-80
2021/12/09 04:02:43;;;;;;;106.60;36.10;;;;;;;-1.81;88.55;100767.64;105521;1275;59681;-80
2021/12/09 04:05:12;;;;;;;98.40;36.50;;;;;;;-1.80;88.47;100766.26;105781;1271;73485;-80
2021/12/09 04:07:41;;;;;;;100.10;36.20;;;;;;;-1.75;88.91;100765.98;105620;1273;71943;-85
2021/12/09 04:10:10;;;;;;;89.90;35.80;;;;;;;-1.76;88.66;100768.05;106125;1273;69784;-82
2021/12/09 04:12:39;;;;;;;98.60;34.20;;;;;;;-1.74;88.75;100768.86;106037;1274;71319;-85
2021/12/09 04:15:10;;;;;;;100.20;34.50;;;;;;;-1.72;88.83;100774.27;105805;1276;63544;-84
2021/12/09 04:17:38;;;;;;;102.60;29.30;;;;;;;-1.74;88.73;100777.20;105997;1272;62430;-81
2021/12/09 04:20:09;;;;;;;108.30;37.70;;;;;;;-1.70;88.70;100775.08;106033;1269;75362;-81
2021/12/09 04:22:38;;;;;;;106.00;38.90;;;;;;;-1.71;87.95;100777.50;105905;1274;70339;-84
2021/12/09 04:25:08;;;;;;;106.70;38.70;;;;;;;-1.64;88.44;100780.25;105870;1271;69890;-83
2021/12/09 04:27:37;;;;;;;94.60;37.50;;;;;;;-1.62;88.79;100783.62;105743;1272;73625;-83
2021/12/09 04:30:06;;;;;;;106.70;38.30;;;;;;;-1.63;89.21;100785.70;105503;1273;61838;-83
2021/12/09 04:32:35;;;;;;;104.60;37.90;;;;;;;-1.63;88.82;100782.46;105473;1274;59583;-83
2021/12/09 04:35:06;;;;;;;102.00;36.40;;;;;;;-1.65;88.52;100785.39;105778;1273;72017;-76
2021/12/09 04:37:38;;;;;;;104.50;35.20;;;;;;;-1.66;88.34;100786.77;105651;1274;72039;-83
2021/12/09 04:40:09;;;;;;;103.90;37.80;;;;;;;-1.65;88.86;100784.02;105378;1275;535297;-81
2021/12/09 04:42:38;;;;;;;101.60;30.30;;;;;;;-1.69;87.56;100782.73;105674;1274;75543;-83
2021/12/09 04:45:09;;;;;;;88.20;35.30;;;;;;;-1.64;87.29;100781.27;105705;1274;60619;-82
2021/12/09 04:47:38;;;;;;;108.30;39.30;;;;;;;-1.64;87.22;100783.99;105850;1273;59563;-82
2021/12/09 04:50:08;;;;;;;95.80;37.40;;;;;;;-1.64;86.69;100780.60;105864;1273;72547;-80
2021/12/09 04:52:38;;;;;;;95.10;36.90;;;;;;;-1.59;87.75;100777.41;105603;1276;71747;-82
2021/12/09 04:55:09;;;;;;;111.30;39.90;;;;;;;-1.55;87.81;100784.15;105737;1275;68669;-82
2021/12/09 04:57:39;;;;;;;110.70;41.50;;;;;;;-1.51;88.16;100787.83;105617;1275;74049;-83
2021/12/09 05:00:12;;;;;;;113.90;40.00;;;;;;;-1.58;85.67;100787.29;105718;1275;62964;-84
2021/12/09 05:05:45;;;;;;;123.50;39.50;;;;;;;-1.45;88.16;100794.02;105501;1275;73504;-86
2021/12/09 05:08:16;;;;;;;109.80;40.90;;;;;;;-1.37;87.90;100798.13;105902;1272;72105;-85
2021/12/09 05:10:59;;;;;;;89.30;38.80;;;;;;;-1.32;87.88;100802.96;105986;1274;70445;-86
2021/12/09 05:13:29;;;;;;;;;;;;;;;-1.31;87.69;100806.89;105940;1275;71949;-80
2021/12/09 05:16:00;;;;;;;109.60;40.40;;;;;;;-1.29;88.92;100809.58;105839;1272;62319;-82
2021/12/09 05:18:31;;;;;;;116.60;45.00;;;;;;;-1.34;89.40;100809.86;105839;1275;62147;-76
2021/12/09 05:21:01;;;;;;;101.80;39.40;;;;;;;-1.36;89.11;100811.24;105517;1275;74057;-79
2021/12/09 05:23:30;;;;;;;101.90;32.70;;;;;;;-1.36;89.17;100816.38;105515;1276;70274;-81
2021/12/09 05:26:01;;;;;;;95.10;39.10;;;;;;;-1.46;87.06;100814.88;105507;1275;70263;-78
2021/12/09 05:28:33;;;;;;;110.10;42.80;;;;;;;-1.50;83.48;100812.73;105672;1272;72900;-79
2021/12/09 05:33:52;;;;;;;103.90;39.10;;;;;;;-1.43;86.95;100814.83;106057;1273;59649;-81
2021/12/09 05:36:21;;;;;;;100.20;37.70;;;;;;;-1.45;88.07;100816.58;106107;1275;72637;-78
2021/12/09 05:38:50;;;;;;;94.90;36.80;;;;;;;-1.48;88.06;100818.34;105675;1275;70601;-76
2021/12/09 05:41:19;;;;;;;100.00;39.10;;;;;;;-1.46;88.41;100822.90;105915;1273;69530;-81
2021/12/09 05:43:48;;;;;;;100.50;41.00;;;;;;;-1.56;86.36;100824.99;105898;1271;72032;-79
2021/12/09 05:46:17;;;;;;;99.00;34.00;;;;;;;-1.58;84.00;100824.02;105726;1274;59629;-80
2021/12/09 05:48:46;;;;;;;104.80;40.30;;;;;;;-1.56;84.64;100825.34;105774;1273;59782;-79
2021/12/09 05:51:15;;;;;;;100.20;40.00;;;;;;;-1.45;86.49;100826.31;105603;1275;71120;-78
2021/12/09 05:53:44;;;;;;;107.60;41.80;;;;;;;-1.39;87.44;100824.98;105785;1274;70451;-80
2021/12/09 05:56:13;;;;;;;119.20;45.50;;;;;;;-1.40;86.16;100825.84;105737;1273;71030;-78
2021/12/09 05:58:42;;;;;;;113.80;44.50;;;;;;;-1.39;84.98;100828.24;105824;1274;74313;-80
2021/12/09 06:01:10;;;;;;;108.80;39.70;;;;;;;-1.32;85.42;100831.67;106159;1272;61841;-75
2021/12/09 06:03:40;;;;;;;112.70;41.50;;;;;;;-1.26;88.45;100827.95;106190;1275;59826;-81
2021/12/09 06:06:09;;;;;;;98.80;39.30;;;;;;;-1.26;88.97;100838.05;105827;1275;72815;-73
2021/12/09 06:08:39;;;;;;;106.70;41.20;;;;;;;-1.32;88.57;100839.20;105684;1275;70176;-81
2021/12/09 06:11:10;;;;;;;99.90;41.70;;;;;;;-1.31;88.28;100842.42;107847;1275;69404;-77
2021/12/09 06:13:40;;;;;;;99.40;41.70;;;;;;;-1.27;87.13;100846.61;106802;1275;74038;-77
2021/12/09 06:16:09;;;;;;;99.40;40.80;;;;;;;-1.31;84.36;100848.92;106122;1275;62880;-78
2021/12/09 06:18:38;;;;;;;108.80;41.90;;;;;;;-1.19;87.23;100854.30;105734;1272;59583;-81
2021/12/09 06:21:08;;;;;;;105.60;42.60;;;;;;;-1.16;88.53;100858.67;105328;1273;74602;-80
2021/12/09 06:23:37;;;;;;;102.40;39.40;;;;;;;-1.15;89.34;100869.92;105705;1272;72785;-75
2021/12/09 06:26:06;;;;;;;97.30;40.90;;;;;;;-1.21;88.92;100869.21;105828;1273;71006;-78
2021/12/09 06:28:35;;;;;;;105.10;41.90;;;;;;;-1.22;87.75;100863.41;105678;1273;74899;-79
2021/12/09 06:31:05;;;;;;;101.00;40.90;;;;;;;-1.13;89.20;100862.88;105758;1269;61318;-77
2021/12/09 06:33:34;;;;;;;93.90;41.10;;;;;;;-1.22;87.38;100861.04;105767;1275;61508;-79
2021/12/09 06:36:04;;;;;;;110.40;41.20;;;;;;;-1.14;88.12;100863.41;105713;1275;75385;-75
2021/12/09 06:38:33;;;;;;;99.80;42.80;;;;;;;-1.19;88.16;100859.93;105561;1273;72786;-81
2021/12/09 06:41:02;;;;;;;102.90;43.40;;;;;;;-1.19;85.87;100861.46;105835;1273;69730;-78
2021/12/09 06:43:31;;;;;;;112.30;44.20;;;;;;;-1.16;85.27;100858.52;105771;1273;74863;-78
2021/12/09 06:46:00;;;;;;;101.90;42.90;;;;;;;-1.18;83.40;100860.59;105503;1275;60731;-80
2021/12/09 06:48:29;;;;;;;112.60;43.40;;;;;;;-1.05;85.25;100864.08;105773;1273;59555;-80
2021/12/09 06:51:01;;;;;;;91.90;40.10;;;;;;;-1.06;84.73;100869.39;105815;1273;73296;-78
2021/12/09 06:53:30;;;;;;;113.30;44.10;;;;;;;-1.08;82.26;100878.85;105679;1274;69686;-79
2021/12/09 06:55:59;;;;;;;102.00;45.30;;;;;;;-1.02;84.12;100877.33;105900;1269;69180;-77
2021/12/09 06:58:28;;;;;;;112.90;43.90;;;;;;;-1.02;83.86;100874.95;105779;1273;71803;-78
2021/12/09 07:00:57;;;;;;;118.50;46.70;;;;;;;-0.93;86.68;100877.30;106013;1273;59835;-83
2021/12/09 07:03:27;;;;;;;117.50;46.20;;;;;;;-0.93;84.22;100876.45;105806;1273;60315;-79
2021/12/09 07:05:57;;;;;;;112.50;40.80;;;;;;;-0.83;87.38;100873.66;105919;1273;74590;-79
2021/12/09 07:08:26;;;;;;;101.10;39.20;;;;;;;-0.87;87.35;100876.49;105884;1273;72753;-81
2021/12/09 07:10:54;;;;;;;97.80;40.30;;;;;;;-0.83;88.50;100874.02;105682;1272;71561;-80
2021/12/09 07:13:23;;;;;;;93.60;39.80;;;;;;;-0.96;85.04;100870.53;105637;1272;72900;-79
2021/12/09 07:15:52;;;;;;;117.50;43.30;;;;;;;-0.94;84.38;100867.58;105620;1273;59714;-80
2021/12/09 07:18:23;;;;;;;100.30;39.00;;;;;;;-0.92;84.02;100873.02;105451;1273;62564;-81
2021/12/09 07:20:53;;;;;;;107.50;40.90;;;;;;;-0.85;84.89;100874.40;105690;1273;71631;-78
2021/12/09 07:23:22;;;;;;;104.50;41.00;;;;;;;-0.82;86.71;100873.13;105478;1273;72104;-80
2021/12/09 07:25:51;;;;;;;96.90;40.70;;;;;;;-0.76;84.84;100878.64;105468;1274;71023;-78
2021/12/09 07:28:19;;;;;;;98.80;38.60;;;;;;;-0.75;82.13;100880.33;105423;1273;74863;-81
2021/12/09 07:30:48;;;;;;;110.80;41.40;;;;;;;-0.67;81.59;100878.61;105595;1273;59955;-79
2021/12/09 07:33:17;;;;;;;101.20;41.60;;;;;;;-0.58;83.54;100879.59;105599;1275;59516;-78
2021/12/09 07:35:46;;;;;;;104.10;43.60;;;;;;;-0.68;78.94;100877.09;105604;1272;72049;-81
2021/12/09 07:38:21;;;;;;;105.50;34.60;;;;;;;-0.56;80.17;100876.98;105602;1272;70429;-79
2021/12/09 07:40:50;;;;;;;104.80;36.20;;;;;;;-0.33;86.69;100890.10;105679;1273;67995;-81
2021/12/09 07:43:19;;;;;;;90.50;30.30;;;;;;;-0.35;86.73;100893.23;105676;1272;71873;-80
2021/12/09 07:45:48;;;;;;;87.40;34.20;;;;;;;-0.46;83.87;100886.83;105673;1273;59907;-78
2021/12/09 07:48:17;;;;;;;84.00;32.90;;;;;;;-0.39;83.47;100889.05;105994;1270;58981;-77
2021/12/09 07:50:46;;;;;;;61.30;21.00;;;;;;;-0.43;81.49;100893.61;105514;1274;74755;-75
2021/12/09 07:53:17;;;;;;;75.40;30.10;;;;;;;-0.52;81.03;100896.03;105773;1272;72370;-76
2021/12/09 07:55:46;;;;;;;61.70;21.30;;;;;;;-0.59;81.23;100891.41;105877;1275;70383;-78
2021/12/09 07:58:15;;;;;;;72.20;26.60;;;;;;;-0.60;81.50;100892.48;105685;1272;71063;-77
2021/12/09 08:00:44;;;;;;;66.10;25.40;;;;;;;-0.59;81.51;100893.12;105696;1274;59719;-79
2021/12/09 08:03:14;;;;;;;76.80;30.40;;;;;;;-0.60;80.91;100891.95;105636;1272;61761;-77
2021/12/09 08:05:47;;;;;;;83.40;34.00;;;;;;;-0.71;80.38;100892.38;105643;1274;74077;-77
2021/12/09 08:08:20;;;;;;;69.70;23.10;;;;;;;-0.55;83.34;100890.98;105619;1272;71570;-78
2021/12/09 08:10:49;;;;;;;74.40;27.70;;;;;;;-0.45;82.53;100890.91;105597;1275;71468;-79
2021/12/09 08:13:17;;;;;;;93.20;34.60;;;;;;;-0.45;81.64;100890.21;105607;1272;74653;-74
2021/12/09 08:15:49;;;;;;;67.30;23.50;;;;;;;-0.43;81.86;100886.42;105678;1272;62331;-77
2021/12/09 08:20:48;;;;;;;98.10;38.30;;;;;;;-0.40;81.63;100888.40;105758;1275;73917;-79
2021/12/09 08:23:18;;;;;;;87.20;37.60;;;;;;;-0.40;81.29;100893.19;105797;1272;71561;-77
2021/12/09 08:25:48;;;;;;;90.40;39.50;;;;;;;-0.25;84.56;100888.36;105719;1270;70923;-80
2021/12/09 08:28:16;;;;;;;89.70;40.70;;;;;;;-0.38;79.65;100889.71;105740;1274;73507;-76
2021/12/09 08:30:46;;;;;;;89.00;32.70;;;;;;;-0.33;80.54;100891.81;105608;1274;61242;-76
2021/12/09 08:33:24;;;;;;;;;;;;;;;-0.19;80.90;100891.48;105682;1275;61537;-74
2021/12/09 08:35:52;;;;;;;45.50;17.50;;;;;;;-0.21;79.56;100892.73;105720;1272;75188;-76
2021/12/09 08:38:24;;;;;;;42.10;16.30;;;;;;;-0.19;79.14;100895.07;105447;1273;72000;-78
2021/12/09 08:40:53;;;;;;;50.10;19.70;;;;;;;-0.20;79.02;100895.44;105696;1272;68346;-78
2021/12/09 08:43:22;;;;;;;87.30;34.50;;;;;;;-0.21;78.79;100895.81;105642;1274;72062;-76
2021/12/09 08:45:53;;;;;;;70.70;26.20;;;;;;;-0.23;80.38;100893.11;105930;1272;59835;-77
2021/12/09 08:48:23;;;;;;;86.80;30.80;;;;;;;-0.21;79.53;100886.06;105730;1272;59811;-77
2021/12/09 08:50:52;;;;;;;80.80;30.90;;;;;;;-0.14;81.25;100885.71;105499;1273;73608;-75
2021/12/09 08:53:23;;;;;;;91.00;34.70;;;;;;;-0.08;80.17;100890.34;105586;1275;71933;-73
2021/12/09 08:55:53;;;;;;;44.20;18.70;;;;;;;0.01;77.69;100893.70;105468;1275;68507;-77
2021/12/09 08:58:23;;;;;;;63.00;22.50;;;;;;;-0.10;77.24;100892.11;105495;1275;72054;-75
2021/12/09 09:00:54;;;;;;;69.30;27.20;;;;;;;-0.16;77.82;100884.38;105564;1272;61423;-72
2021/12/09 09:03:24;;;;;;;69.70;26.00;;;;;;;-0.21;79.53;100882.80;105607;1273;61535;-73
2021/12/09 09:05:53;;;;;;;58.80;23.40;;;;;;;-0.08;79.04;100882.30;105598;1270;75016;-76
2021/12/09 09:08:22;;;;;;;54.80;21.70;;;;;;;-0.05;78.24;100877.59;105573;1272;73271;-68
2021/12/09 09:10:50;;;;;;;71.40;27.60;;;;;;;-0.07;78.22;100872.50;105758;1272;72398;-75
2021/12/09 09:13:19;;;;;;;51.00;22.20;;;;;;;-0.02;77.55;100875.11;105677;1272;73665;-80
2021/12/09 09:15:48;;;;;;;78.10;32.00;;;;;;;-0.07;77.23;100880.54;105737;1272;60476;-77
2021/12/09 09:18:18;;;;;;;66.10;25.10;;;;;;;-0.08;76.95;100881.24;105750;1275;59799;-79
2021/12/09 09:20:47;;;;;;;66.70;27.50;;;;;;;-0.13;77.04;100880.20;105812;1273;72566;-74
2021/12/09 09:23:19;;;;;;;36.00;13.00;;;;;;;-0.15;77.41;100875.12;105671;1272;70027;-76
2021/12/09 09:25:48;;;;;;;68.80;30.10;;;;;;;-0.11;76.78;100872.44;105788;1273;68909;-76
2021/12/09 09:28:17;;;;;;;69.00;28.10;;;;;;;-0.15;78.24;100868.60;105737;1273;72389;-77
2021/12/09 09:30:53;;;;;;;61.40;24.10;;;;;;;-0.16;77.27;100862.65;105715;1272;60923;-78
2021/12/09 09:33:24;;;;;;;82.00;32.10;;;;;;;0.00;78.14;100870.93;105690;1272;60442;-76
2021/12/09 09:35:53;;;;;;;65.30;26.90;;;;;;;0.21;78.18;100866.45;105683;1272;73024;-76
2021/12/09 09:38:23;;;;;;;63.30;26.90;;;;;;;0.12;77.79;100865.67;105722;1272;72761;-72
2021/12/09 09:41:04;;;;;;;61.40;23.00;;;;;;;0.24;78.34;100861.77;105613;1273;70951;-75
2021/12/09 09:46:52;;;;;;;54.20;20.30;;;;;;;0.48;76.87;100873.25;105581;1272;61449;-78
2021/12/09 09:49:21;;;;;;;79.50;33.50;;;;;;;0.42;77.32;100873.07;105379;1275;59728;-75
2021/12/09 09:51:57;;;;;;;82.30;33.60;;;;;;;0.44;79.89;100871.14;105664;1274;72614;-76
2021/12/09 09:54:26;;;;;;;76.30;27.90;;;;;;;0.56;80.62;100873.71;105766;1273;72277;-74
2021/12/09 09:56:55;;;;;;;63.50;26.20;;;;;;;0.62;78.77;100875.94;105816;1272;72684;-75
2021/12/09 09:59:24;;;;;;;64.00;24.10;;;;;;;0.56;77.79;100869.95;105928;1273;74635;-74
2021/12/09 10:01:55;;;;;;;71.40;28.00;;;;;;;0.55;79.17;100868.42;106440;1269;61931;-76
2021/12/09 10:07:17;;;;;;;61.20;21.10;;;;;;;0.73;78.26;100873.38;105931;1270;71001;-75
2021/12/09 10:09:47;;;;;;;52.40;20.20;;;;;;;0.75;76.60;100880.53;105944;1269;70790;-75
2021/12/09 10:12:16;;;;;;;63.70;24.20;;;;;;;0.62;76.59;100885.86;105818;1272;70076;-81
2021/12/09 10:14:51;;;;;;;69.90;30.10;;;;;;;0.51;78.44;100883.97;105771;1269;74974;-78
2021/12/09 10:17:26;;;;;;;65.10;29.90;;;;;;;0.57;77.80;100882.77;105826;1269;60023;-77
2021/12/09 10:20:10;;;;;;;51.00;20.30;;;;;;;0.51;79.54;100885.50;105706;1269;58983;-79
2021/12/09 10:22:39;;;;;;;77.80;32.10;;;;;;;0.68;77.33;100886.21;105621;1269;72913;-76
2021/12/09 10:25:22;;;;;;;72.20;32.10;;;;;;;0.66;78.01;100878.73;105810;1272;71901;-74
2021/12/09 10:27:59;;;;;;;70.30;25.10;;;;;;;0.62;78.19;100871.66;105771;1273;72098;-78
2021/12/09 10:30:29;;;;;;;73.70;29.50;;;;;;;0.65;77.58;100864.89;105622;1272;74605;-74
2021/12/09 10:33:02;;;;;;;80.70;34.60;;;;;;;0.56;79.43;100858.63;105714;1272;60163;-76
2021/12/09 10:35:30;;;;;;;87.70;38.90;;;;;;;0.45;77.83;100857.73;105398;1272;61746;-75
2021/12/09 10:38:01;;;;;;;74.90;31.40;;;;;;;0.68;81.41;100855.70;105453;1274;75371;-79
2021/12/09 10:40:30;;;;;;;71.00;32.80;;;;;;;0.77;82.03;100845.33;105448;1274;71013;-74
2021/12/09 10:43:03;;;;;;;79.70;38.40;;;;;;;0.81;79.66;100839.38;105565;1272;71194;-76
2021/12/09 10:45:37;;;;;;;84.70;40.10;;;;;;;0.94;76.53;100823.40;105424;1272;73425;-77
2021/12/09 10:48:27;;;;;;;82.60;38.60;;;;;;;1.01;76.55;100822.15;105602;1269;62432;-76
2021/12/09 10:53:51;;;;;;;75.60;39.50;;;;;;;1.48;76.22;100826.48;105641;1269;75462;-77
2021/12/09 10:56:27;;;;;;;82.40;40.00;;;;;;;1.25;73.49;100822.60;105608;1272;70469;-79
2021/12/09 10:58:56;;;;;;;77.40;38.30;;;;;;;1.43;74.13;100828.70;105668;1269;71520;-78
2021/12/09 11:01:25;;;;;;;87.70;39.30;;;;;;;1.48;75.61;100835.89;105746;1269;73526;-77
2021/12/09 11:03:58;;;;;;;77.10;38.10;;;;;;;1.57;77.60;100838.70;105668;1270;61072;-76
2021/12/09 11:06:37;;;;;;;70.00;37.90;;;;;;;1.27;76.97;100832.45;105712;1270;60271;-74
2021/12/09 11:09:08;;;;;;;69.60;36.80;;;;;;;1.33;77.62;100820.63;105595;1272;72600;-79
2021/12/09 11:11:41;;;;;;;78.60;38.40;;;;;;;1.17;77.28;100819.23;105726;1269;69737;-78
2021/12/09 11:14:16;;;;;;;73.90;35.70;;;;;;;1.15;76.84;100817.25;105664;1273;71652;-75
2021/12/09 11:16:50;;;;;;;66.60;35.10;;;;;;;0.98;75.49;100814.00;105618;1273;74463;-82
2021/12/09 11:19:46;;;;;;;67.00;35.90;;;;;;;0.72;76.06;100816.33;105577;1274;60311;-75
2021/12/09 11:22:19;;;;;;;85.50;39.30;;;;;;;0.81;77.49;100814.88;105683;1271;59493;-77
2021/12/09 11:24:57;;;;;;;81.10;37.60;;;;;;;1.06;82.06;100812.87;105604;1269;74289;-77
2021/12/09 11:27:28;;;;;;;76.00;37.00;;;;;;;1.14;81.47;100816.58;105667;1271;70186;-75
2021/12/09 11:30:12;;;;;;;68.90;34.60;;;;;;;0.97;79.05;100808.52;105524;1272;71059;-77
2021/12/09 11:32:50;;;;;;;91.10;42.00;;;;;;;1.03;78.75;100803.89;105925;1272;73868;-79
2021/12/09 11:35:26;;;;;;;65.80;37.80;;;;;;;1.12;79.07;100808.24;105457;1273;62647;-77